createdAt,value
2019-01-13T00:01:32.483Z,3.00
2019-01-13T00:04:42.793Z,3.00
2019-01-13T00:07:15.601Z,3.33
2019-01-13T00:12:51.539Z,5.00
2019-01-13T00:15:25.143Z,5.00
2019-01-13T00:17:56.264Z,5.00
2019-01-13T00:21:08.369Z,3.00
2019-01-13T00:23:40.383Z,3.00
2019-01-13T00:26:32.461Z,5.00
2019-01-13T00:32:26.810Z,5.00
2019-01-13T00:34:58.334Z,3.00
2019-01-13T00:37:33.199Z,5.00
2019-01-13T00:40:36.055Z,5.00
2019-01-13T00:42:56.853Z,5.00
2019-01-13T00:49:12.918Z,5.40
2019-01-13T00:52:04.993Z,7.33
2019-01-13T00:54:38.240Z,5.33
2019-01-13T01:00:28.868Z,7.00
2019-01-13T01:03:19.003Z,5.33
2019-01-13T01:05:53.902Z,9.00
2019-01-13T01:08:44.113Z,5.33
2019-01-13T01:14:39.723Z,7.33
2019-01-13T01:17:11.541Z,7.33
2019-01-13T01:20:03.610Z,5.33
2019-01-13T01:22:39.608Z,4.67
2019-01-13T01:25:14.131Z,6.00
2019-01-13T01:27:45.244Z,3.33
2019-01-13T01:30:57.158Z,3.75
2019-01-13T01:36:28.688Z,3.33
2019-01-13T01:57:43.609Z,4.00
2019-01-13T02:00:40.319Z,4.33
2019-01-13T02:03:07.463Z,6.00
2019-01-13T02:05:57.516Z,3.33
2019-01-13T02:08:47.620Z,2.67
2019-01-13T02:11:37.460Z,4.00
2019-01-13T02:14:28.101Z,4.00
2019-01-13T02:17:00.394Z,4.80
2019-01-13T02:19:32.748Z,3.67
2019-01-13T02:22:22.890Z,3.33
2019-01-13T02:24:54.027Z,4.67
2019-01-13T02:27:38.073Z,4.00
2019-01-13T02:30:00.273Z,4.00
2019-01-13T02:32:51.179Z,6.40
2019-01-13T02:35:22.592Z,5.33
2019-01-13T02:37:53.737Z,4.33
2019-01-13T02:44:03.947Z,7.33
2019-01-13T02:46:55.268Z,7.20
2019-01-13T02:58:01.967Z,7.00
2019-01-13T03:00:46.201Z,5.50
2019-01-13T03:03:25.655Z,7.33
2019-01-13T03:05:56.699Z,7.67
2019-01-13T03:08:46.375Z,8.00
2019-01-13T03:14:20.093Z,8.00
2019-01-13T03:16:52.012Z,9.00
2019-01-13T03:19:23.117Z,6.00
2019-01-13T03:21:54.643Z,8.00
2019-01-13T03:27:28.950Z,7.67
2019-01-13T03:33:01.769Z,8.00
2019-01-13T03:35:32.935Z,6.00
2019-01-13T03:38:04.057Z,6.67
2019-01-13T03:40:55.532Z,6.00
2019-01-13T03:43:48.031Z,9.33
2019-01-13T03:46:57.345Z,8.67
2019-01-13T03:50:08.690Z,8.50
2019-01-13T03:53:21.636Z,7.00
2019-01-13T03:56:15.212Z,8.00
2019-01-13T03:59:09.143Z,12.50
2019-01-13T04:02:04.524Z,7.00
2019-01-13T04:04:54.521Z,10.00
2019-01-13T04:07:45.410Z,10.00
2019-01-13T04:10:46.916Z,7.33
2019-01-13T04:13:40.041Z,9.33
2019-01-13T04:19:56.934Z,11.67
2019-01-13T04:22:47.195Z,11.33
2019-01-13T04:26:09.037Z,10.33
2019-01-13T04:28:50.518Z,8.67
2019-01-13T04:32:03.337Z,10.33
2019-01-13T04:38:25.595Z,8.33
2019-01-13T04:41:16.234Z,11.33
2019-01-13T04:43:46.485Z,11.67
2019-01-13T04:49:39.308Z,11.67
2019-01-13T04:52:29.371Z,12.00
2019-01-13T04:55:18.290Z,11.67
2019-01-13T04:58:21.642Z,10.33
2019-01-13T05:01:13.593Z,13.67
2019-01-13T05:04:14.411Z,11.67
2019-01-13T05:06:56.901Z,14.67
2019-01-13T05:15:43.346Z,10.67
2019-01-13T05:18:16.682Z,6.67
2019-01-13T05:24:24.921Z,10.00
2019-01-13T05:27:15.764Z,12.67
2019-01-13T05:29:47.818Z,10.67
2019-01-13T05:38:56.471Z,8.75
2019-01-13T05:41:28.417Z,11.25
2019-01-13T05:44:17.602Z,9.67
2019-01-13T05:46:47.728Z,7.67
2019-01-13T05:49:18.947Z,7.33
2019-01-13T05:51:49.983Z,9.33
2019-01-13T05:54:21.090Z,9.00
2019-01-13T05:57:11.380Z,8.33
2019-01-13T06:02:51.341Z,7.33
2019-01-13T06:05:23.335Z,10.00
2019-01-13T06:08:12.450Z,9.00
2019-01-13T06:13:53.037Z,9.00
2019-01-13T06:16:24.147Z,7.67
2019-01-13T06:18:55.292Z,11.67
2019-01-13T06:21:45.354Z,11.00
2019-01-13T06:24:15.577Z,9.00
2019-01-13T06:26:46.626Z,7.67
2019-01-13T06:29:35.741Z,7.67
2019-01-13T06:32:17.219Z,9.33
2019-01-13T06:35:07.252Z,6.67
2019-01-13T06:37:50.379Z,10.33
2019-01-13T06:43:38.595Z,12.67
2019-01-13T06:46:27.803Z,10.00
2019-01-13T06:51:58.376Z,11.33
2019-01-13T06:54:29.509Z,10.00
2019-01-13T06:57:00.550Z,10.67
2019-01-13T06:59:31.694Z,10.00
2019-01-13T07:02:03.497Z,9.00
2019-01-13T07:04:35.882Z,8.00
2019-01-13T07:07:06.099Z,9.33
2019-01-13T07:09:37.238Z,11.33
2019-01-13T07:12:08.231Z,9.67
2019-01-13T07:14:40.148Z,11.00
2019-01-13T07:17:11.260Z,9.33
2019-01-13T07:20:01.321Z,9.33
2019-01-13T07:25:35.796Z,9.00
2019-01-13T07:28:05.992Z,11.67
2019-01-13T07:30:37.988Z,9.25
2019-01-13T07:33:09.055Z,10.67
2019-01-13T07:35:40.162Z,8.33
2019-01-13T07:38:30.731Z,11.00
2019-01-13T07:41:02.235Z,11.33
2019-01-13T07:43:33.292Z,9.67
2019-01-13T07:46:24.190Z,7.75
2019-01-13T07:48:55.279Z,11.33
2019-01-13T07:51:25.449Z,9.00
2019-01-13T07:54:27.701Z,5.00
2019-01-13T07:56:49.219Z,9.00
2019-01-13T08:05:13.490Z,7.00
2019-01-13T08:07:44.555Z,9.00
2019-01-13T08:10:15.524Z,9.00
2019-01-13T08:13:06.485Z,10.00
2019-01-13T08:15:56.534Z,7.67
2019-01-13T08:18:46.670Z,9.00
2019-01-13T08:21:17.870Z,8.33
2019-01-13T08:23:48.927Z,9.33
2019-01-13T08:26:39.906Z,5.00
2019-01-13T08:29:29.723Z,5.00
2019-01-13T08:32:24.938Z,6.33
2019-01-13T08:34:52.591Z,7.33
2019-01-13T08:37:43.849Z,5.80
2019-01-13T08:40:17.848Z,6.60
2019-01-13T08:43:07.982Z,5.67
2019-01-13T08:45:42.153Z,7.00
2019-01-13T08:51:16.635Z,5.33
2019-01-13T08:54:08.030Z,5.00
2019-01-13T08:56:40.049Z,3.80
2019-01-13T08:59:31.041Z,5.00
2019-01-13T09:02:21.944Z,6.75
2019-01-13T09:04:53.391Z,5.00
2019-01-13T09:07:43.208Z,4.33
2019-01-13T09:10:33.325Z,5.00
2019-01-13T09:13:43.077Z,5.00
2019-01-13T09:16:34.028Z,5.40
2019-01-13T09:22:26.019Z,5.33
2019-01-13T09:25:22.221Z,3.40
2019-01-13T09:28:12.307Z,3.33
2019-01-13T09:31:02.473Z,5.33
2019-01-13T09:33:53.834Z,5.00
2019-01-13T09:36:24.977Z,2.67
2019-01-13T09:38:56.072Z,3.33
2019-01-13T09:41:47.007Z,4.20
2019-01-13T09:44:20.449Z,3.33
2019-01-13T09:46:51.525Z,3.67
2019-01-13T09:49:41.724Z,1.67
2019-01-13T09:55:34.025Z,2.67
2019-01-13T09:58:05.242Z,4.00
2019-01-13T10:00:46.309Z,5.40
2019-01-13T10:03:17.386Z,3.00
2019-01-13T10:05:50.044Z,3.00
2019-01-13T10:08:22.009Z,3.80
2019-01-13T10:20:44.595Z,3.33
2019-01-13T10:26:28.620Z,3.33
2019-01-13T10:29:06.587Z,3.40
2019-01-13T10:34:50.941Z,4.60
2019-01-13T10:40:27.674Z,5.00
2019-01-13T10:42:59.819Z,3.80
2019-01-13T10:45:33.430Z,7.00
2019-01-13T10:48:23.321Z,5.00
2019-01-13T10:50:55.305Z,3.80
2019-01-13T10:56:27.083Z,5.67
2019-01-13T10:59:17.250Z,5.00
2019-01-13T11:01:48.367Z,7.00
2019-01-13T11:04:39.386Z,5.80
2019-01-13T11:07:10.465Z,3.00
2019-01-13T11:09:42.449Z,5.00
2019-01-13T11:15:21.468Z,7.00
2019-01-13T11:18:08.653Z,5.67
2019-01-13T11:20:40.616Z,3.00
2019-01-13T11:23:30.754Z,5.67
2019-01-13T11:26:01.914Z,5.67
2019-01-13T11:28:52.915Z,5.00
2019-01-13T11:31:26.087Z,3.00
2019-01-13T11:34:49.584Z,5.00
2019-01-13T11:37:13.965Z,7.00
2019-01-13T11:39:56.091Z,3.67
2019-01-13T11:45:23.741Z,5.00
2019-01-13T11:51:24.701Z,3.00
2019-01-13T11:54:16.036Z,5.00
2019-01-13T11:57:06.438Z,7.00
2019-01-13T11:59:50.372Z,5.00
2019-01-13T12:02:41.969Z,9.00
2019-01-13T12:08:28.262Z,14.67
2019-01-13T12:10:59.619Z,7.00
2019-01-13T12:13:33.857Z,5.00
2019-01-13T12:19:29.866Z,3.00
2019-01-13T12:22:21.529Z,1.00
2019-01-13T12:24:52.623Z,1.00
2019-01-13T12:27:44.805Z,3.00
2019-01-13T12:30:27.025Z,5.00
2019-01-13T12:32:58.432Z,1.00
2019-01-13T12:35:48.525Z,1.67
2019-01-13T12:38:52.939Z,1.00
2019-01-13T12:41:11.489Z,5.67
2019-01-13T12:43:42.681Z,1.00
2019-01-13T12:46:33.663Z,4.20
2019-01-13T12:49:05.641Z,3.40
2019-01-13T12:51:48.843Z,1.80
2019-01-13T13:00:16.079Z,5.00
2019-01-13T13:02:47.558Z,7.67
2019-01-13T13:05:50.852Z,7.00
2019-01-13T13:14:53.274Z,5.00
2019-01-13T13:17:36.183Z,5.00
2019-01-13T13:20:10.737Z,7.00
2019-01-13T13:23:00.847Z,5.00
2019-01-13T13:25:32.320Z,3.00
2019-01-13T13:28:23.734Z,3.00
2019-01-13T13:30:54.992Z,1.00
2019-01-13T13:33:57.436Z,3.00
2019-01-13T13:36:57.129Z,5.00
2019-01-13T13:39:47.224Z,3.00
2019-01-13T13:42:19.189Z,5.00
2019-01-13T13:45:22.077Z,2.33
2019-01-13T13:47:41.826Z,5.67
2019-01-13T13:50:15.090Z,3.00
2019-01-13T13:53:24.276Z,3.00
2019-01-13T13:55:55.378Z,5.00
2019-01-13T14:01:45.323Z,3.00
2019-01-13T14:04:58.645Z,3.00
2019-01-13T14:10:47.003Z,3.00
2019-01-13T14:13:20.617Z,3.00
2019-01-13T14:19:00.569Z,3.00
2019-01-13T14:21:50.690Z,1.00
2019-01-13T14:27:46.933Z,2.60
2019-01-13T14:33:53.006Z,1.00
2019-01-13T14:36:22.343Z,1.00
2019-01-13T14:39:12.765Z,1.00
2019-01-13T14:41:43.877Z,7.00
2019-01-13T14:47:50.819Z,3.67
2019-01-13T14:50:23.834Z,1.00
2019-01-13T14:52:55.186Z,1.00
2019-01-13T14:55:45.276Z,2.33
2019-01-13T14:58:35.400Z,1.00
2019-01-13T15:01:06.560Z,1.00
2019-01-13T15:03:37.755Z,1.00
2019-01-13T15:06:09.463Z,1.00
2019-01-13T15:08:59.569Z,1.00
2019-01-13T15:11:49.982Z,1.00
2019-01-13T15:14:21.187Z,1.00
2019-01-13T15:17:11.304Z,1.00
2019-01-13T15:25:28.671Z,1.00
2019-01-13T15:33:42.972Z,1.00
2019-01-13T15:39:16.361Z,1.00
2019-01-13T15:44:50.968Z,1.00
2019-01-13T15:47:22.099Z,1.00
2019-01-13T15:52:43.105Z,1.00
2019-01-13T15:55:15.090Z,1.00
2019-01-13T15:57:47.085Z,1.00
2019-01-13T16:00:22.659Z,1.00
2019-01-13T16:02:54.660Z,1.00
2019-01-13T16:05:25.749Z,1.00
2019-01-13T16:07:56.815Z,1.00
2019-01-13T16:10:30.425Z,1.00
2019-01-13T16:16:11.172Z,1.40
2019-01-13T16:18:42.262Z,1.00
2019-01-13T16:24:16.842Z,1.00
2019-01-13T16:26:48.269Z,1.00
2019-01-13T16:29:20.271Z,1.00
2019-01-13T16:31:52.198Z,1.00
2019-01-13T16:34:57.089Z,1.00
2019-01-13T16:37:18.746Z,1.00
2019-01-13T16:42:55.267Z,7.00
2019-01-13T16:45:30.396Z,1.00
2019-01-13T16:48:21.429Z,5.00
2019-01-13T16:50:52.585Z,1.00
2019-01-13T16:53:26.921Z,3.00
2019-01-13T16:55:59.274Z,1.00
2019-01-13T16:58:49.400Z,3.00
2019-01-13T17:01:40.370Z,2.20
2019-01-13T17:07:13.282Z,1.00
2019-01-13T17:09:44.401Z,1.00
2019-01-13T17:12:54.327Z,1.00
2019-01-13T17:15:45.056Z,1.00
2019-01-13T17:21:17.871Z,1.00
2019-01-13T17:23:49.981Z,1.00
2019-01-13T17:26:56.377Z,1.00
2019-01-13T17:29:36.417Z,1.00
2019-01-13T17:41:19.397Z,3.00
2019-01-13T17:46:45.657Z,5.00
2019-01-13T17:49:17.750Z,1.00
2019-01-13T17:51:50.013Z,1.00
2019-01-13T17:54:21.870Z,1.00
2019-01-13T18:00:41.514Z,1.00
2019-01-13T18:03:12.216Z,3.00
2019-01-13T18:06:21.345Z,1.00
2019-01-13T18:11:57.732Z,1.80
2019-01-13T18:14:29.747Z,1.00
2019-01-13T18:17:06.479Z,1.00
2019-01-13T18:19:38.161Z,1.00
2019-01-13T18:22:28.884Z,3.00
2019-01-13T18:25:00.646Z,3.00
2019-01-13T18:27:53.876Z,2.20
2019-01-13T18:30:28.904Z,1.00
2019-01-13T18:33:19.899Z,1.67
2019-01-13T18:35:52.853Z,2.60
2019-01-13T18:38:43.708Z,2.33
2019-01-13T18:44:44.923Z,1.00
2019-01-13T18:47:17.160Z,2.33
2019-01-13T18:49:50.798Z,5.00
2019-01-13T18:52:44.678Z,5.00
2019-01-13T18:55:27.936Z,3.00
2019-01-13T18:58:32.951Z,5.00
2019-01-13T19:01:31.343Z,3.67
2019-01-13T19:07:05.716Z,3.00
2019-01-13T19:09:38.412Z,5.00
2019-01-13T19:12:51.496Z,6.33
2019-01-13T19:15:42.536Z,3.00
2019-01-13T19:18:16.963Z,7.00
2019-01-13T19:20:49.147Z,7.00
2019-01-13T19:27:15.002Z,6.50
2019-01-13T19:35:23.539Z,9.00
2019-01-13T19:38:15.300Z,4.60
2019-01-13T19:40:47.584Z,5.00
2019-01-13T19:43:39.380Z,7.80
2019-01-13T19:49:26.829Z,5.00
2019-01-13T19:51:49.968Z,7.00
2019-01-13T19:54:40.824Z,7.00
2019-01-13T20:03:21.958Z,3.00
2019-01-13T20:06:13.363Z,4.60
2019-01-13T20:08:45.158Z,3.00
2019-01-13T20:11:39.636Z,3.80
2019-01-13T20:14:30.537Z,4.33
2019-01-13T20:17:31.029Z,3.00
2019-01-13T20:20:25.922Z,4.33
2019-01-13T20:23:16.555Z,7.00
2019-01-13T20:26:08.959Z,5.00
2019-01-13T20:29:14.443Z,3.00
2019-01-13T20:31:45.267Z,7.00
2019-01-13T20:34:19.816Z,5.00
2019-01-13T20:36:52.075Z,5.00
2019-01-13T20:40:06.919Z,3.67
2019-01-13T20:42:59.094Z,7.00
2019-01-13T20:45:50.166Z,5.00
2019-01-13T20:48:32.319Z,5.00
2019-01-13T20:54:16.918Z,2.33
2019-01-13T20:59:39.168Z,1.00
2019-01-13T21:02:50.850Z,1.00
2019-01-13T21:05:26.843Z,1.00
2019-01-13T21:08:16.407Z,1.00
2019-01-13T21:10:48.720Z,1.33
2019-01-13T21:16:24.517Z,1.33
2019-01-13T21:19:17.605Z,1.40
2019-01-13T21:25:12.798Z,2.00
2019-01-13T21:30:49.947Z,2.00
2019-01-13T21:33:22.856Z,2.00
2019-01-13T21:41:50.958Z,1.00
2019-01-13T21:47:32.671Z,2.00
2019-01-13T21:50:24.153Z,2.00
2019-01-13T21:56:19.083Z,2.00
2019-01-13T21:59:09.896Z,2.00
2019-01-13T22:02:00.723Z,2.00
2019-01-13T22:04:32.972Z,3.33
2019-01-13T22:07:05.207Z,2.67
2019-01-13T22:09:57.441Z,3.33
2019-01-13T22:12:30.088Z,2.00
2019-01-13T22:15:02.449Z,6.67
2019-01-13T22:20:41.308Z,1.33
2019-01-13T22:23:32.261Z,3.33
2019-01-13T22:26:04.318Z,3.33
2019-01-13T22:28:36.592Z,3.33
2019-01-13T22:33:53.336Z,3.67
2019-01-13T22:36:25.660Z,3.33
2019-01-13T22:39:30.208Z,3.33
2019-01-13T22:42:29.585Z,3.33
2019-01-13T22:48:12.227Z,3.67
2019-01-13T22:53:46.670Z,2.00
2019-01-13T22:56:18.973Z,4.67
2019-01-13T22:58:51.417Z,3.67
2019-01-13T23:04:55.934Z,3.33
2019-01-13T23:10:17.098Z,3.80
2019-01-13T23:13:03.329Z,3.67
2019-01-13T23:18:30.372Z,5.33
2019-01-13T23:21:32.355Z,5.33
2019-01-13T23:24:08.659Z,5.40
2019-01-13T23:27:01.780Z,4.33
2019-01-13T23:29:33.906Z,5.33
2019-01-13T23:32:05.990Z,5.67
2019-01-13T23:34:38.239Z,5.33
2019-01-13T23:37:10.483Z,3.67
2019-01-13T23:42:46.229Z,3.40
2019-01-13T23:48:21.129Z,3.67
2019-01-13T23:50:54.207Z,4.40
2019-01-13T23:53:26.551Z,5.00
2019-01-13T23:56:18.587Z,5.00
2019-01-13T23:58:50.678Z,4.33
